Time;durP1;ratioP1;P1;durP2;ratioP2;P2;SDS_P1;SDS_P2;PMS_P1;PMS_P2;Temp;Humidity;BMP_temperature;BMP_pressure;BME280_temperature;BME280_humidity;BME280_pressure;Samples;Min_cycle;Max_cycle;Signal;HPM_P1;HPM_P2
2023/05/14 00:01:17;;;;;;;;;;;;;;;14.08;61.68;100376.66;5110756;28;19912;-82
2023/05/14 00:03:42;;;;;;;;;;;;;;;14.04;61.96;100377.63;5111160;28;19980;-83
2023/05/14 00:06:09;;;;;;;;;;;;;;;14.03;62.40;100375.00;5124851;27;19968;-83
2023/05/14 00:08:35;;;;;;;;;;;;;;;14.01;61.56;100376.78;5119422;27;20312;-83
2023/05/14 00:11:00;;;;;;;;;;;;;;;13.96;62.57;100372.47;5110484;28;19926;-82
2023/05/14 00:13:25;;;;;;;;;;;;;;;13.78;62.62;100370.13;5110738;27;19923;-83
2023/05/14 00:15:51;;;;;;;;;;;;;;;13.95;63.18;100370.69;5116515;27;19920;-84
2023/05/14 00:18:16;;;;;;;;;;;;;;;13.98;63.33;100369.78;5118611;28;20033;-82
2023/05/14 00:20:41;;;;;;;;;;;;;;;14.00;61.90;100378.56;5119056;28;19922;-82
2023/05/14 00:23:07;;;;;;;;;;;;;;;13.85;62.82;100379.72;5121889;28;19922;-83
2023/05/14 00:25:32;;;;;;;;;;;;;;;13.72;62.79;100370.25;5116798;28;19923;-83
2023/05/14 00:27:57;;;;;;;;;;;;;;;13.77;62.49;100371.91;5119224;28;20300;-83
2023/05/14 00:30:22;;;;;;;;;;;;;;;13.82;62.38;100363.84;5122150;27;19938;-82
2023/05/14 00:32:48;;;;;;;;;;;;;;;13.83;62.35;100364.75;5129322;27;19919;-82
2023/05/14 00:35:13;;;;;;;;;;;;;;;13.83;61.50;100367.41;5121603;27;19922;-82
2023/05/14 00:37:38;;;;;;;;;;;;;;;13.68;61.89;100364.09;5123899;27;19922;-82
2023/05/14 00:40:05;;;;;;;;;;;;;;;13.50;62.95;100367.06;5119415;27;19922;-83
2023/05/14 00:42:30;;;;;;;;;;;;;;;13.39;64.85;100361.94;5117896;27;19919;-81
2023/05/14 00:44:56;;;;;;;;;;;;;;;13.53;63.62;100365.25;5124646;27;19915;-81
2023/05/14 00:47:21;;;;;;;;;;;;;;;13.60;63.40;100363.38;5124587;27;19915;-82
2023/05/14 00:49:46;;;;;;;;;;;;;;;13.54;62.35;100355.50;5121820;27;19916;-82
2023/05/14 00:52:12;;;;;;;;;;;;;;;13.40;61.21;100364.56;5124370;27;20404;-80
2023/05/14 00:54:37;;;;;;;;;;;;;;;13.26;60.76;100356.78;5125162;27;19915;-81
2023/05/14 00:57:03;;;;;;;;;;;;;;;13.16;60.67;100352.56;5125252;27;19924;-80
2023/05/14 00:59:29;;;;;;;;;;;;;;;13.12;61.47;100342.03;5122714;27;19997;-81
2023/05/14 01:01:54;;;;;;;;;;;;;;;13.13;61.40;100325.22;5122570;27;20364;-81
2023/05/14 01:04:19;;;;;;;;;;;;;;;13.08;61.47;100325.28;5116268;27;19969;-80
2023/05/14 01:06:47;;;;;;;;;;;;;;;13.16;60.46;100327.81;5124337;27;19915;-80
2023/05/14 01:09:17;;;;;;;;;;;;;;;13.32;60.44;100325.81;5121675;27;19954;-81
2023/05/14 01:12:01;;;;;;;;;;;;;;;13.31;59.44;100327.56;5124476;27;19930;-83
2023/05/14 01:14:47;;;;;;;;;;;;;;;13.24;60.05;100329.47;5116761;27;19924;-81
2023/05/14 01:17:14;;;;;;;;;;;;;;;13.18;59.89;100326.03;5132446;27;19967;-84
2023/05/14 01:19:43;;;;;;;;;;;;;;;13.14;59.67;100330.50;5122535;27;19916;-81
2023/05/14 01:22:09;;;;;;;;;;;;;;;13.15;59.91;100329.59;5121124;27;19923;-82
2023/05/14 01:24:34;;;;;;;;;;;;;;;12.88;60.31;100325.56;5124838;27;19916;-80
2023/05/14 01:27:12;;;;;;;;;;;;;;;12.77;61.14;100316.94;5126504;27;19919;-81
2023/05/14 01:29:40;;;;;;;;;;;;;;;12.79;61.49;100320.41;5121024;27;19985;-83
2023/05/14 01:32:06;;;;;;;;;;;;;;;12.81;61.95;100319.50;5125354;27;20002;-85
2023/05/14 01:34:34;;;;;;;;;;;;;;;12.81;61.91;100323.94;5120553;27;19915;-83
2023/05/14 01:37:00;;;;;;;;;;;;;;;12.96;61.33;100323.72;5118954;27;19926;-82
2023/05/14 01:39:25;;;;;;;;;;;;;;;13.03;61.57;100322.69;5121383;27;19911;-82
2023/05/14 01:41:51;;;;;;;;;;;;;;;12.95;61.97;100318.44;5118076;27;19972;-82
2023/05/14 01:44:17;;;;;;;;;;;;;;;12.82;62.68;100315.97;5128335;27;19911;-82
2023/05/14 01:46:42;;;;;;;;;;;;;;;12.83;63.00;100309.75;5132669;27;20415;-84
2023/05/14 01:49:07;;;;;;;;;;;;;;;12.71;63.11;100305.53;5130853;27;19922;-86
2023/05/14 01:51:33;;;;;;;;;;;;;;;12.66;63.60;100302.06;5122093;27;19915;-84
2023/05/14 01:53:58;;;;;;;;;;;;;;;12.57;63.63;100291.59;5113570;28;20308;-84
2023/05/14 01:56:24;;;;;;;;;;;;;;;12.67;63.70;100292.38;5113508;28;19912;-82
2023/05/14 01:58:50;;;;;;;;;;;;;;;12.71;63.88;100296.69;5115027;27;19932;-83
2023/05/14 02:01:15;;;;;;;;;;;;;;;12.58;63.54;100295.13;5123458;27;19993;-83
2023/05/14 02:03:41;;;;;;;;;;;;;;;12.40;64.35;100286.53;5127028;27;20393;-82
2023/05/14 02:06:06;;;;;;;;;;;;;;;12.47;64.59;100292.63;5124137;27;19918;-82
2023/05/14 02:08:31;;;;;;;;;;;;;;;12.52;63.92;100289.00;5118686;27;19939;-82
2023/05/14 02:10:57;;;;;;;;;;;;;;;12.64;63.58;100293.28;5129822;27;19926;-82
2023/05/14 02:13:22;;;;;;;;;;;;;;;12.71;63.41;100297.59;5134558;27;19916;-83
2023/05/14 02:15:48;;;;;;;;;;;;;;;12.79;63.42;100307.19;5134184;27;19912;-81
2023/05/14 02:18:13;;;;;;;;;;;;;;;13.01;62.72;100300.69;5134184;27;19911;-84
2023/05/14 02:20:39;;;;;;;;;;;;;;;12.93;62.22;100304.31;5135425;27;19979;-84
2023/05/14 02:23:05;;;;;;;;;;;;;;;12.97;61.67;100314.84;5134839;27;19919;-83
2023/05/14 02:25:30;;;;;;;;;;;;;;;12.85;62.57;100308.00;5134464;27;19912;-84
2023/05/14 02:27:55;;;;;;;;;;;;;;;12.70;63.14;100309.06;5134844;27;19933;-84
2023/05/14 02:30:21;;;;;;;;;;;;;;;12.67;63.35;100316.19;5135186;27;19911;-84
2023/05/14 02:32:46;;;;;;;;;;;;;;;12.70;63.26;100310.84;5132564;27;20014;-86
2023/05/14 02:35:11;;;;;;;;;;;;;;;12.87;62.63;100311.47;5127813;27;19915;-84
2023/05/14 02:37:37;;;;;;;;;;;;;;;12.70;63.11;100313.50;5116390;28;19964;-83
2023/05/14 02:40:03;;;;;;;;;;;;;;;12.78;63.65;100311.59;5125657;27;19975;-83
2023/05/14 02:42:28;;;;;;;;;;;;;;;12.68;63.87;100304.69;5135729;27;19917;-84
2023/05/14 02:44:53;;;;;;;;;;;;;;;12.52;64.29;100296.09;5133241;27;19963;-83
2023/05/14 02:47:19;;;;;;;;;;;;;;;12.41;64.68;100298.88;5128321;27;19912;-83
2023/05/14 02:49:44;;;;;;;;;;;;;;;12.29;65.05;100299.03;5123367;27;19912;-84
2023/05/14 02:52:10;;;;;;;;;;;;;;;12.18;65.67;100301.81;5112545;28;19912;-85
2023/05/14 02:54:35;;;;;;;;;;;;;;;12.39;65.20;100311.25;5112896;27;20297;-85
2023/05/14 02:57:00;;;;;;;;;;;;;;;12.58;64.87;100324.25;5133531;27;20277;-85
2023/05/14 02:59:26;;;;;;;;;;;;;;;12.59;64.48;100331.28;5133232;27;20409;-84
2023/05/14 03:01:51;;;;;;;;;;;;;;;12.72;64.46;100341.69;5133011;27;19954;-84
2023/05/14 03:04:17;;;;;;;;;;;;;;;12.74;63.95;100349.59;5133387;27;20276;-82
2023/05/14 03:06:42;;;;;;;;;;;;;;;12.97;63.35;100351.94;5132217;27;19919;-83
2023/05/14 03:09:07;;;;;;;;;;;;;;;12.92;63.49;100356.44;5118691;27;19918;-82
2023/05/14 03:11:33;;;;;;;;;;;;;;;13.00;63.32;100359.81;5127944;27;19919;-83
2023/05/14 03:13:58;;;;;;;;;;;;;;;13.03;63.06;100362.44;5132925;27;19968;-83
2023/05/14 03:16:23;;;;;;;;;;;;;;;12.96;63.19;100362.53;5131777;27;19923;-83
2023/05/14 03:18:49;;;;;;;;;;;;;;;12.99;63.91;100368.69;5132731;27;19918;-83
2023/05/14 03:21:14;;;;;;;;;;;;;;;13.00;64.08;100362.47;5132878;27;20361;-84
2023/05/14 03:23:39;;;;;;;;;;;;;;;13.12;63.55;100361.44;5132256;27;20388;-84
2023/05/14 03:26:05;;;;;;;;;;;;;;;13.15;64.10;100352.56;5132437;27;19950;-84
2023/05/14 03:28:30;;;;;;;;;;;;;;;13.21;65.08;100350.69;5132425;27;20007;-84
2023/05/14 03:30:56;;;;;;;;;;;;;;;13.24;65.27;100342.69;5131805;27;20025;-84
2023/05/14 03:33:21;;;;;;;;;;;;;;;13.20;65.86;100346.28;5131976;27;19933;-84
2023/05/14 03:35:47;;;;;;;;;;;;;;;13.22;66.06;100349.81;5132508;27;19911;-84
2023/05/14 03:38:12;;;;;;;;;;;;;;;13.12;66.40;100358.78;5132173;27;19915;-84
2023/05/14 03:40:38;;;;;;;;;;;;;;;13.20;66.84;100364.84;5132267;27;20392;-86
2023/05/14 03:43:03;;;;;;;;;;;;;;;13.19;67.13;100372.81;5131341;27;19953;-85
2023/05/14 03:45:29;;;;;;;;;;;;;;;13.37;66.24;100377.00;5131826;27;19964;-84
2023/05/14 03:47:54;;;;;;;;;;;;;;;13.57;65.89;100374.03;5131570;27;19983;-84
2023/05/14 03:50:20;;;;;;;;;;;;;;;13.58;66.11;100370.47;5132062;27;19916;-84
2023/05/14 03:52:45;;;;;;;;;;;;;;;13.43;66.84;100367.16;5131837;27;20429;-84
2023/05/14 03:55:11;;;;;;;;;;;;;;;13.49;67.91;100378.59;5131606;27;20433;-85
2023/05/14 03:57:36;;;;;;;;;;;;;;;13.67;68.09;100383.59;5131640;27;19971;-84
2023/05/14 04:00:02;;;;;;;;;;;;;;;13.88;67.00;100390.28;5131482;27;19911;-83
2023/05/14 04:02:27;;;;;;;;;;;;;;;13.81;66.29;100387.75;5131533;27;20376;-84
2023/05/14 04:04:52;;;;;;;;;;;;;;;13.78;67.68;100386.06;5129683;27;19921;-83
2023/05/14 04:07:18;;;;;;;;;;;;;;;13.79;67.35;100386.03;5130297;27;19911;-83
2023/05/14 04:09:43;;;;;;;;;;;;;;;13.90;66.77;100392.91;5131039;27;20030;-83
2023/05/14 04:12:08;;;;;;;;;;;;;;;13.82;67.30;100386.88;5131103;27;20302;-83
2023/05/14 04:14:34;;;;;;;;;;;;;;;13.72;67.42;100386.16;5131335;27;20396;-83
2023/05/14 04:16:59;;;;;;;;;;;;;;;13.58;68.18;100389.03;5131698;27;19911;-82
2023/05/14 04:19:24;;;;;;;;;;;;;;;13.45;68.21;100388.34;5131465;27;20374;-84
2023/05/14 04:21:50;;;;;;;;;;;;;;;13.48;68.71;100388.28;5131211;28;20028;-83
2023/05/14 04:24:16;;;;;;;;;;;;;;;13.76;68.40;100388.72;5131718;28;20034;-88
2023/05/14 04:26:41;;;;;;;;;;;;;;;13.69;67.62;100381.75;5126091;27;19916;-85
2023/05/14 04:29:06;;;;;;;;;;;;;;;13.73;66.91;100385.22;5120128;27;19941;-83
2023/05/14 04:31:32;;;;;;;;;;;;;;;14.02;66.83;100382.06;5120464;27;19916;-83
2023/05/14 04:33:57;;;;;;;;;;;;;;;14.05;64.91;100373.19;5121047;27;19983;-84
2023/05/14 04:36:22;;;;;;;;;;;;;;;13.95;64.43;100380.44;5131114;28;19921;-84
2023/05/14 04:38:48;;;;;;;;;;;;;;;13.89;65.00;100375.25;5131557;27;19911;-83
2023/05/14 04:41:13;;;;;;;;;;;;;;;14.20;64.05;100380.00;5131680;27;19959;-83
2023/05/14 04:43:39;;;;;;;;;;;;;;;14.39;64.68;100393.78;5124505;28;19918;-83
2023/05/14 04:46:04;;;;;;;;;;;;;;;14.47;64.03;100391.84;5110584;28;19980;-84
2023/05/14 04:48:30;;;;;;;;;;;;;;;14.60;63.09;100395.13;5110734;28;20013;-83
2023/05/14 04:50:55;;;;;;;;;;;;;;;14.50;62.12;100411.25;5129229;28;19919;-84
2023/05/14 04:53:20;;;;;;;;;;;;;;;14.46;61.71;100414.88;5118902;27;19998;-84
2023/05/14 04:55:45;;;;;;;;;;;;;;;14.74;61.79;100414.34;5120422;28;19916;-83
2023/05/14 04:58:11;;;;;;;;;;;;;;;14.63;61.61;100409.25;5131760;27;19912;-83
2023/05/14 05:00:37;;;;;;;;;;;;;;;14.87;61.89;100406.97;5130794;28;20387;-84
2023/05/14 05:03:02;;;;;;;;;;;;;;;14.74;61.80;100394.88;5131113;27;19919;-84
2023/05/14 05:05:27;;;;;;;;;;;;;;;14.58;61.69;100386.31;5131291;27;20284;-84
2023/05/14 05:07:53;;;;;;;;;;;;;;;14.65;62.23;100378.22;5131309;27;19915;-82
2023/05/14 05:10:18;;;;;;;;;;;;;;;14.60;61.29;100374.78;5130087;27;19934;-84
2023/05/14 05:12:43;;;;;;;;;;;;;;;14.73;61.88;100390.47;5130164;27;20364;-83
2023/05/14 05:15:09;;;;;;;;;;;;;;;14.76;61.33;100404.56;5131683;27;19911;-83
2023/05/14 05:17:35;;;;;;;;;;;;;;;14.88;61.18;100392.81;5135001;27;20438;-84
2023/05/14 05:20:00;;;;;;;;;;;;;;;14.97;61.49;100391.75;5134259;27;20404;-83
2023/05/14 05:22:26;;;;;;;;;;;;;;;15.04;61.02;100390.66;5134291;27;19958;-84
2023/05/14 05:24:51;;;;;;;;;;;;;;;14.93;60.71;100379.41;5132976;27;19960;-82
2023/05/14 05:27:16;;;;;;;;;;;;;;;14.91;60.11;100395.38;5134188;27;20381;-83
2023/05/14 05:29:42;;;;;;;;;;;;;;;15.12;60.03;100398.47;5134608;27;20492;-84
2023/05/14 05:32:08;;;;;;;;;;;;;;;15.36;59.81;100397.91;5133819;27;20005;-85
2023/05/14 05:34:33;;;;;;;;;;;;;;;15.36;58.88;100405.00;5134262;27;19921;-84
2023/05/14 05:36:58;;;;;;;;;;;;;;;15.66;58.74;100402.53;5134540;27;19994;-85
2023/05/14 05:39:24;;;;;;;;;;;;;;;15.71;56.51;100409.47;5134234;27;19922;-83
2023/05/14 05:41:49;;;;;;;;;;;;;;;15.82;56.80;100411.00;5134259;27;19927;-88
2023/05/14 05:44:14;;;;;;;;;;;;;;;15.91;56.65;100419.66;5133133;27;19911;-85
2023/05/14 05:46:40;;;;;;;;;;;;;;;15.68;57.06;100419.34;5134673;27;19910;-84
2023/05/14 05:49:05;;;;;;;;;;;;;;;15.73;56.79;100439.56;5134417;27;20304;-84
2023/05/14 05:51:30;;;;;;;;;;;;;;;15.57;57.21;100435.56;5133864;27;20368;-83
2023/05/14 05:53:56;;;;;;;;;;;;;;;15.55;57.48;100426.72;5134269;27;19911;-84
2023/05/14 05:56:22;;;;;;;;;;;;;;;15.36;57.15;100426.28;5134129;27;20340;-82
2023/05/14 05:58:47;;;;;;;;;;;;;;;15.50;57.04;100416.19;5127129;27;19923;-84
2023/05/14 06:01:12;;;;;;;;;;;;;;;15.46;58.83;100417.19;5130417;27;19926;-81
2023/05/14 06:03:37;;;;;;;;;;;;;;;15.10;58.37;100425.06;5130159;27;20021;-79
2023/05/14 06:06:03;;;;;;;;;;;;;;;15.09;58.58;100438.41;5126161;27;20006;-84
2023/05/14 06:08:28;;;;;;;;;;;;;;;15.04;57.83;100449.13;5116617;27;20376;-82
2023/05/14 06:10:53;;;;;;;;;;;;;;;15.07;57.26;100445.53;5113454;27;19981;-80
2023/05/14 06:13:19;;;;;;;;;;;;;;;15.36;56.82;100451.06;5121894;27;19923;-83
2023/05/14 06:15:44;;;;;;;;;;;;;;;15.58;57.56;100455.88;5115312;27;19946;-82
2023/05/14 06:18:09;;;;;;;;;;;;;;;15.61;57.28;100457.63;5117905;27;19919;-82
2023/05/14 06:20:35;;;;;;;;;;;;;;;15.63;57.45;100461.09;5117528;27;19960;-82
2023/05/14 06:23:00;;;;;;;;;;;;;;;15.81;57.64;100460.69;5113475;27;19916;-84
2023/05/14 06:25:25;;;;;;;;;;;;;;;15.69;57.34;100467.16;5116732;27;20003;-81
2023/05/14 06:27:51;;;;;;;;;;;;;;;15.72;56.91;100466.19;5115689;27;19916;-85
2023/05/14 06:30:16;;;;;;;;;;;;;;;15.52;57.31;100466.66;5121377;27;19919;-81
2023/05/14 06:32:41;;;;;;;;;;;;;;;15.72;57.19;100472.41;5120059;27;19916;-85
2023/05/14 06:35:07;;;;;;;;;;;;;;;15.67;57.36;100478.75;5115228;27;19931;-84
2023/05/14 06:37:32;;;;;;;;;;;;;;;15.63;56.63;100483.28;5121004;27;19915;-81
2023/05/14 06:39:58;;;;;;;;;;;;;;;15.86;56.07;100484.53;5131607;27;19923;-82
2023/05/14 06:42:23;;;;;;;;;;;;;;;15.73;56.44;100489.25;5115125;27;20457;-83
2023/05/14 06:44:48;;;;;;;;;;;;;;;15.46;57.00;100504.94;5119379;27;19919;-82
2023/05/14 06:47:13;;;;;;;;;;;;;;;15.18;58.67;100504.63;5116644;27;19926;-80
2023/05/14 06:49:39;;;;;;;;;;;;;;;15.10;59.50;100510.09;5125159;27;20050;-84
2023/05/14 06:52:04;;;;;;;;;;;;;;;15.06;61.61;100524.38;5118770;27;19915;-79
2023/05/14 06:54:30;;;;;;;;;;;;;;;14.86;61.90;100538.91;5122083;27;19963;-79
2023/05/14 06:56:55;;;;;;;;;;;;;;;14.62;64.05;100536.72;5111030;28;19916;-79
2023/05/14 06:59:21;;;;;;;;;;;;;;;14.76;64.97;100545.31;5124259;27;19916;-79
2023/05/14 07:01:47;;;;;;;;;;;;;;;14.41;66.28;100541.50;5119594;27;19968;-80
2023/05/14 07:04:12;;;;;;;;;;;;;;;14.60;65.59;100543.81;5123618;27;19924;-86
2023/05/14 07:06:37;;;;;;;;;;;;;;;14.60;66.66;100551.78;5118663;27;19923;-85
2023/05/14 07:09:03;;;;;;;;;;;;;;;14.63;66.06;100543.78;5113651;27;21267;-81
2023/05/14 07:11:28;;;;;;;;;;;;;;;14.42;68.99;100551.19;5119668;27;19915;-80
2023/05/14 07:13:53;;;;;;;;;;;;;;;14.41;69.60;100551.22;5123073;27;20316;-84
2023/05/14 07:16:19;;;;;;;;;;;;;;;14.38;69.00;100549.50;5118783;27;19946;-79
2023/05/14 07:18:44;;;;;;;;;;;;;;;14.67;69.33;100533.09;5116227;27;19958;-78
2023/05/14 07:21:10;;;;;;;;;;;;;;;14.63;68.42;100526.06;5113624;27;19996;-79
2023/05/14 07:23:37;;;;;;;;;;;;;;;14.79;68.73;100526.66;5120326;27;19918;-79
2023/05/14 07:26:02;;;;;;;;;;;;;;;14.77;67.72;100524.94;5117898;27;19918;-79
2023/05/14 07:28:27;;;;;;;;;;;;;;;14.80;68.38;100527.56;5114613;27;19915;-79
2023/05/14 07:30:53;;;;;;;;;;;;;;;14.82;68.44;100531.91;5116372;27;19919;-85
2023/05/14 07:33:18;;;;;;;;;;;;;;;14.86;68.85;100528.28;5128390;27;19958;-78
2023/05/14 07:35:43;;;;;;;;;;;;;;;14.81;68.74;100516.91;5124005;27;19923;-78
2023/05/14 07:38:09;;;;;;;;;;;;;;;14.73;67.73;100513.50;5114519;27;19919;-78
2023/05/14 07:40:34;;;;;;;;;;;;;;;14.69;67.95;100506.50;5123693;27;19911;-78
2023/05/14 07:42:59;;;;;;;;;;;;;;;14.55;68.11;100501.44;5122597;27;19995;-78
2023/05/14 07:45:25;;;;;;;;;;;;;;;14.70;69.52;100497.63;5122274;27;19961;-79
2023/05/14 07:47:50;;;;;;;;;;;;;;;14.64;71.36;100495.06;5124865;27;19921;-79
2023/05/14 07:50:19;;;;;;;;;;;;;;;14.32;71.37;100494.75;5126013;27;20381;-79
2023/05/14 07:52:44;;;;;;;;;;;;;;;14.62;71.35;100502.22;5131182;27;20261;-79
2023/05/14 07:55:11;;;;;;;;;;;;;;;14.82;70.98;100513.31;5131951;27;19911;-79
2023/05/14 07:57:36;;;;;;;;;;;;;;;14.81;71.14;100524.88;5127984;27;20303;-81
2023/05/14 08:00:02;;;;;;;;;;;;;;;14.90;69.63;100518.47;5118078;27;19997;-79
2023/05/14 08:02:28;;;;;;;;;;;;;;;14.54;70.96;100520.03;5121289;27;20001;-79
2023/05/14 08:04:53;;;;;;;;;;;;;;;14.58;69.93;100519.94;5122388;27;19977;-81
2023/05/14 08:07:18;;;;;;;;;;;;;;;14.58;70.14;100514.63;5128654;27;20346;-79
2023/05/14 08:09:44;;;;;;;;;;;;;;;14.52;71.42;100509.44;5123330;27;19923;-79
2023/05/14 08:12:09;;;;;;;;;;;;;;;14.62;71.88;100503.06;5119388;27;20399;-79
2023/05/14 08:14:34;;;;;;;;;;;;;;;14.64;71.55;100505.69;5131197;27;20433;-87
2023/05/14 08:17:00;;;;;;;;;;;;;;;14.59;70.60;100502.22;5118390;27;19980;-79
2023/05/14 08:19:26;;;;;;;;;;;;;;;14.73;69.92;100513.50;5116211;27;19908;-79
2023/05/14 08:21:51;;;;;;;;;;;;;;;15.00;67.99;100524.50;5119925;28;19951;-79
2023/05/14 08:24:17;;;;;;;;;;;;;;;15.10;69.92;100526.03;5121350;27;20341;-80
2023/05/14 08:26:43;;;;;;;;;;;;;;;15.10;70.77;100528.69;5120423;28;19923;-81
2023/05/14 08:29:08;;;;;;;;;;;;;;;15.22;71.13;100531.09;5119487;27;19967;-80
2023/05/14 08:31:33;;;;;;;;;;;;;;;14.96;69.48;100557.34;5118972;28;19922;-79
2023/05/14 08:33:59;;;;;;;;;;;;;;;15.06;69.54;100558.91;5119519;28;19915;-79
2023/05/14 08:36:24;;;;;;;;;;;;;;;15.06;71.44;100574.88;5122394;28;19911;-87
2023/05/14 08:38:49;;;;;;;;;;;;;;;14.99;73.25;100583.84;5119194;28;19972;-78
2023/05/14 08:41:15;;;;;;;;;;;;;;;14.85;74.37;100584.97;5123105;27;19911;-78
2023/05/14 08:43:44;;;;;;;;;;;;;;;14.64;75.28;100596.88;5118726;27;20478;-79
2023/05/14 08:46:12;;;;;;;;;;;;;;;14.59;76.49;100590.72;5127047;27;19911;-79
2023/05/14 08:48:39;;;;;;;;;;;;;;;14.64;76.62;100586.25;5118873;28;19915;-79
2023/05/14 08:51:05;;;;;;;;;;;;;;;14.64;76.95;100574.75;5121418;27;19979;-78
2023/05/14 08:53:31;;;;;;;;;;;;;;;14.61;76.85;100582.75;5134313;27;19947;-80
2023/05/14 08:55:57;;;;;;;;;;;;;;;14.79;76.46;100578.91;5133489;27;19973;-84
2023/05/14 08:58:24;;;;;;;;;;;;;;;14.53;77.13;100580.19;5134197;27;19946;-79
2023/05/14 09:00:49;;;;;;;;;;;;;;;14.60;76.80;100581.00;5122674;27;20369;-78
2023/05/14 09:03:16;;;;;;;;;;;;;;;14.53;77.39;100580.19;5123078;27;19980;-80
2023/05/14 09:05:41;;;;;;;;;;;;;;;14.43;78.44;100581.28;5125194;27;19958;-78
2023/05/14 09:08:06;;;;;;;;;;;;;;;14.50;79.47;100575.84;5120213;27;20373;-79
2023/05/14 09:10:32;;;;;;;;;;;;;;;14.65;79.29;100569.41;5123083;27;19919;-80
2023/05/14 09:12:57;;;;;;;;;;;;;;;14.66;79.07;100560.53;5132980;27;19919;-80
2023/05/14 09:15:26;;;;;;;;;;;;;;;14.69;79.71;100546.34;5134050;27;19926;-82
2023/05/14 09:17:52;;;;;;;;;;;;;;;14.65;80.99;100536.66;5119810;27;19924;-81
2023/05/14 09:20:17;;;;;;;;;;;;;;;14.70;80.77;100548.06;5123588;27;19912;-79
2023/05/14 09:22:43;;;;;;;;;;;;;;;14.99;80.52;100550.16;5117263;27;19915;-85
2023/05/14 09:25:10;;;;;;;;;;;;;;;14.84;81.61;100546.06;5127622;27;19915;-84
2023/05/14 09:27:36;;;;;;;;;;;;;;;15.01;80.69;100553.69;5112508;27;19911;-81
2023/05/14 09:30:04;;;;;;;;;;;;;;;15.14;79.31;100546.34;5120753;27;19933;-81
2023/05/14 09:32:42;;;;;;;;;;;;;;;15.14;79.23;100546.34;5127095;27;19915;-81
2023/05/14 09:35:18;;;;;;;;;;;;;;;15.30;78.58;100541.59;5116802;27;19915;-80
2023/05/14 09:37:45;;;;;;;;;;;;;;;15.35;77.84;100536.16;5127018;27;19918;-81
2023/05/14 09:40:11;;;;;;;;;;;;;;;15.11;77.81;100533.13;5116413;27;20007;-80
2023/05/14 09:42:36;;;;;;;;;;;;;;;15.15;77.19;100545.44;5119820;27;20520;-80
2023/05/14 09:45:03;;;;;;;;;;;;;;;14.62;76.93;100545.56;5118956;27;19968;-81
2023/05/14 09:47:29;;;;;;;;;;;;;;;14.82;79.01;100544.31;5116098;27;20452;-81
2023/05/14 09:49:54;;;;;;;;;;;;;;;15.06;78.81;100537.66;5121817;27;20007;-84
2023/05/14 09:52:22;;;;;;;;;;;;;;;15.24;77.41;100519.59;5123828;27;19962;-84
2023/05/14 09:54:47;;;;;;;;;;;;;;;15.34;76.11;100505.19;5118848;27;19915;-79
2023/05/14 09:57:13;;;;;;;;;;;;;;;15.35;73.24;100494.53;5118058;27;19980;-80
2023/05/14 09:59:38;;;;;;;;;;;;;;;15.24;73.51;100495.66;5119465;27;19922;-81
2023/05/14 10:02:04;;;;;;;;;;;;;;;15.57;74.32;100496.72;5117493;27;19922;-81
2023/05/14 10:04:30;;;;;;;;;;;;;;;15.76;74.74;100484.72;5125574;27;19950;-80
2023/05/14 10:06:56;;;;;;;;;;;;;;;15.65;74.31;100477.91;5132168;27;19954;-80
2023/05/14 10:09:25;;;;;;;;;;;;;;;15.62;74.21;100488.63;5132265;27;20340;-87
2023/05/14 10:11:52;;;;;;;;;;;;;;;15.87;73.86;100476.50;5132935;27;19979;-79
2023/05/14 10:14:23;;;;;;;;;;;;;;;16.05;72.05;100491.16;5122797;27;20354;-80
2023/05/14 10:16:49;;;;;;;;;;;;;;;15.98;75.53;100494.00;5132873;27;19911;-81
2023/05/14 10:19:16;;;;;;;;;;;;;;;16.07;73.99;100499.09;5132404;27;20006;-81
2023/05/14 10:21:44;;;;;;;;;;;;;;;16.32;73.58;100487.81;5132301;27;20511;-79
2023/05/14 10:24:09;;;;;;;;;;;;;;;16.26;72.74;100486.19;5120735;27;19908;-80
2023/05/14 10:26:38;;;;;;;;;;;;;;;16.18;70.16;100486.38;5132305;27;20020;-79
2023/05/14 10:29:03;;;;;;;;;;;;;;;16.20;69.96;100489.00;5133134;27;19995;-79
2023/05/14 10:32:05;;;;;;;;;;;;;;;16.26;70.57;100497.69;5131389;27;20463;-80
2023/05/14 10:34:37;;;;;;;;;;;;;;;16.29;70.12;100494.09;5048928;28;19971;-82
2023/05/14 10:37:28;;;;;;;;;;;;;;;15.97;71.75;100492.25;5048233;28;19948;-82
2023/05/14 10:39:57;;;;;;;;;;;;;;;16.20;72.05;100494.31;5046099;28;19924;-81
2023/05/14 10:42:24;;;;;;;;;;;;;;;16.26;70.57;100489.72;5048982;28;19921;-81
2023/05/14 10:44:57;;;;;;;;;;;;;;;16.14;70.53;100483.84;5048532;28;19916;-80
2023/05/14 10:47:24;;;;;;;;;;;;;;;16.15;70.84;100473.16;5048364;28;19920;-78
2023/05/14 10:49:52;;;;;;;;;;;;;;;16.18;71.36;100473.06;5048761;28;19913;-78
2023/05/14 10:52:18;;;;;;;;;;;;;;;15.92;72.65;100466.59;5048738;28;19940;-81
2023/05/14 10:54:47;;;;;;;;;;;;;;;16.01;73.39;100448.69;5047991;28;19916;-79
2023/05/14 10:57:12;;;;;;;;;;;;;;;16.01;72.99;100441.56;5048264;28;19916;-77
2023/05/14 10:59:40;;;;;;;;;;;;;;;16.18;71.58;100438.47;5048085;28;19927;-80
2023/05/14 11:02:17;;;;;;;;;;;;;;;16.20;73.16;100443.75;5030588;28;19925;-78
2023/05/14 11:04:49;;;;;;;;;;;;;;;16.01;75.06;100435.38;5043085;28;19921;-77
2023/05/14 11:07:15;;;;;;;;;;;;;;;16.17;73.98;100431.38;5043084;28;19912;-77
2023/05/14 11:09:40;;;;;;;;;;;;;;;16.32;71.06;100434.56;5120728;27;20321;-79
2023/05/14 11:12:07;;;;;;;;;;;;;;;16.27;71.80;100442.69;5125001;27;20059;-77
2023/05/14 11:14:32;;;;;;;;;;;;;;;16.09;71.55;100441.38;5124427;27;20457;-78
2023/05/14 11:16:57;;;;;;;;;;;;;;;16.08;72.86;100440.50;5120724;27;19915;-77
2023/05/14 11:19:23;;;;;;;;;;;;;;;16.22;72.74;100425.94;5113303;27;19934;-78
2023/05/14 11:21:48;;;;;;;;;;;;;;;16.21;73.12;100421.56;5113506;27;20005;-77
2023/05/14 11:24:13;;;;;;;;;;;;;;;16.12;72.52;100422.66;5113654;27;20002;-78
2023/05/14 11:26:39;;;;;;;;;;;;;;;16.20;71.94;100419.81;5113637;27;19912;-80
2023/05/14 11:29:04;;;;;;;;;;;;;;;16.13;73.51;100421.75;5117326;27;20432;-77
2023/05/14 11:31:30;;;;;;;;;;;;;;;16.28;72.87;100415.13;5120696;27;19911;-81
2023/05/14 11:33:55;;;;;;;;;;;;;;;16.31;72.69;100424.84;5128785;27;20014;-79
2023/05/14 11:36:21;;;;;;;;;;;;;;;15.95;73.51;100431.09;5124099;27;19919;-79
2023/05/14 11:38:51;;;;;;;;;;;;;;;16.15;73.48;100437.69;5128897;27;19915;-80
2023/05/14 11:41:16;;;;;;;;;;;;;;;16.09;73.68;100426.25;5129132;27;19919;-80
2023/05/14 11:43:41;;;;;;;;;;;;;;;16.23;72.89;100417.06;5116238;27;19972;-80
2023/05/14 11:46:07;;;;;;;;;;;;;;;16.38;71.84;100419.31;5120334;27;19912;-80
2023/05/14 11:48:32;;;;;;;;;;;;;;;16.33;72.40;100420.34;5122880;27;19992;-81
2023/05/14 11:50:58;;;;;;;;;;;;;;;16.33;73.75;100420.34;5116613;27;20050;-81
2023/05/14 11:53:29;;;;;;;;;;;;;;;16.38;73.60;100431.75;5119408;27;20342;-81
2023/05/14 11:55:56;;;;;;;;;;;;;;;16.43;72.99;100430.69;5115060;27;19915;-79
2023/05/14 11:58:22;;;;;;;;;;;;;;;16.26;74.20;100423.16;5117585;27;19915;-79
2023/05/14 12:00:50;;;;;;;;;;;;;;;16.53;73.16;100427.78;5116627;27;19942;-78
2023/05/14 12:03:23;;;;;;;;;;;;;;;16.65;72.09;100430.09;5118147;27;19919;-80
2023/05/14 12:05:55;;;;;;;;;;;;;;;16.77;70.68;100435.06;5118601;27;19915;-81
2023/05/14 12:08:22;;;;;;;;;;;;;;;16.87;71.22;100433.06;5116221;27;19963;-80
2023/05/14 12:10:47;;;;;;;;;;;;;;;16.72;73.58;100421.00;5119633;27;20365;-82
2023/05/14 12:13:17;;;;;;;;;;;;;;;16.75;72.97;100420.06;5118135;27;19922;-84
2023/05/14 12:15:45;;;;;;;;;;;;;;;16.61;72.04;100423.13;5116109;27;19994;-83
2023/05/14 12:18:11;;;;;;;;;;;;;;;16.58;70.91;100426.72;5118141;27;20672;-82
2023/05/14 12:20:36;;;;;;;;;;;;;;;16.57;70.56;100424.97;5112550;28;19915;-80
2023/05/14 12:23:01;;;;;;;;;;;;;;;16.60;71.74;100411.56;5116653;28;19923;-80
2023/05/14 12:25:28;;;;;;;;;;;;;;;16.46;72.87;100408.44;5115789;28;20370;-80
2023/05/14 12:27:53;;;;;;;;;;;;;;;16.24;74.93;100405.50;5112447;27;19928;-80
2023/05/14 12:30:19;;;;;;;;;;;;;;;16.47;74.58;100394.22;5115963;28;19967;-78